createdAt,value
2023-03-22T00:02:13.921Z,7.51
2023-03-22T00:04:42.630Z,7.46
2023-03-22T00:07:09.590Z,7.48
2023-03-22T00:09:36.706Z,7.44
2023-03-22T00:12:03.795Z,7.55
2023-03-22T00:14:30.494Z,7.50
2023-03-22T00:16:57.465Z,7.45
2023-03-22T00:19:24.178Z,7.49
2023-03-22T00:21:52.275Z,7.44
2023-03-22T00:24:21.148Z,7.48
2023-03-22T00:26:47.819Z,7.44
2023-03-22T00:29:14.611Z,7.36
2023-03-22T00:31:41.447Z,7.32
2023-03-22T00:34:08.429Z,7.31
2023-03-22T00:36:37.895Z,7.32
2023-03-22T00:39:04.726Z,7.39
2023-03-22T00:41:31.532Z,7.44
2023-03-22T00:43:58.265Z,7.41
2023-03-22T00:46:25.019Z,7.40
2023-03-22T00:48:51.793Z,7.53
2023-03-22T00:51:18.520Z,7.49
2023-03-22T00:53:45.746Z,7.48
2023-03-22T00:56:16.068Z,7.40
2023-03-22T00:58:43.428Z,7.39
2023-03-22T01:01:13.849Z,7.52
2023-03-22T01:03:42.053Z,7.46
2023-03-22T01:06:09.336Z,7.40
2023-03-22T01:08:39.293Z,7.43
2023-03-22T01:11:07.463Z,7.46
2023-03-22T01:13:37.610Z,7.46
2023-03-22T01:16:05.835Z,7.47
2023-03-22T01:18:32.569Z,7.43
2023-03-22T01:21:00.482Z,7.40
2023-03-22T01:23:27.291Z,7.39
2023-03-22T01:25:54.053Z,7.36
2023-03-22T01:28:20.700Z,7.34
2023-03-22T01:30:47.522Z,7.31
2023-03-22T01:33:14.260Z,7.29
2023-03-22T01:35:40.998Z,7.29
2023-03-22T01:38:07.753Z,7.38
2023-03-22T01:40:34.954Z,7.40
2023-03-22T01:43:01.683Z,7.36
2023-03-22T01:45:42.957Z,7.32
2023-03-22T01:48:36.122Z,7.29
2023-03-22T01:51:27.729Z,7.36
2023-03-22T01:54:04.135Z,7.29
2023-03-22T01:56:34.737Z,7.27
2023-03-22T01:59:02.143Z,7.26
2023-03-22T02:01:30.189Z,7.21
2023-03-22T02:04:25.891Z,7.22
2023-03-22T02:06:56.600Z,7.23
2023-03-22T02:09:23.337Z,7.23
2023-03-22T02:12:07.049Z,7.19
2023-03-22T02:15:12.020Z,7.16
2023-03-22T02:17:59.711Z,7.20
2023-03-22T02:20:29.302Z,7.20
2023-03-22T02:23:26.385Z,7.17
2023-03-22T02:26:19.613Z,7.17
2023-03-22T02:28:56.811Z,7.17
2023-03-22T02:31:41.753Z,7.14
2023-03-22T02:34:36.406Z,7.08
2023-03-22T02:37:14.881Z,7.07
2023-03-22T02:39:47.248Z,7.05
2023-03-22T02:42:46.260Z,7.03
2023-03-22T02:45:23.139Z,7.16
2023-03-22T02:48:10.206Z,7.14
2023-03-22T02:50:52.458Z,7.06
2023-03-22T02:53:31.291Z,7.01
2023-03-22T02:56:11.623Z,6.96
2023-03-22T02:58:48.433Z,6.92
2023-03-22T03:01:21.325Z,6.90
2023-03-22T03:03:51.046Z,6.90
2023-03-22T03:06:20.885Z,6.89
2023-03-22T03:08:51.067Z,6.92
2023-03-22T03:11:18.229Z,6.91
2023-03-22T03:13:48.464Z,6.89
2023-03-22T03:16:18.976Z,6.91
2023-03-22T03:18:48.624Z,6.93
2023-03-22T03:21:34.876Z,6.92
2023-03-22T03:24:32.969Z,6.89
2023-03-22T03:27:07.294Z,6.91
2023-03-22T03:29:41.231Z,6.87
2023-03-22T03:32:21.121Z,6.88
2023-03-22T03:34:52.942Z,6.78
2023-03-22T03:37:24.111Z,6.77
2023-03-22T03:40:13.093Z,6.78
2023-03-22T03:42:44.792Z,6.87
2023-03-22T03:45:12.518Z,6.86
2023-03-22T03:47:39.663Z,6.85
2023-03-22T03:50:08.462Z,6.80
2023-03-22T03:52:35.767Z,6.78
2023-03-22T03:55:02.598Z,6.76
2023-03-22T03:57:29.378Z,6.76
2023-03-22T03:59:56.362Z,6.79
2023-03-22T04:02:23.108Z,6.79
2023-03-22T04:04:50.011Z,6.80
2023-03-22T04:07:16.842Z,6.74
2023-03-22T04:09:43.520Z,6.65
2023-03-22T04:12:10.513Z,6.68
2023-03-22T04:14:37.599Z,6.60
2023-03-22T04:17:04.362Z,6.58
2023-03-22T04:19:31.349Z,6.59
2023-03-22T04:21:58.344Z,6.56
2023-03-22T04:24:25.021Z,6.63
2023-03-22T04:26:52.719Z,6.66
2023-03-22T04:29:19.620Z,6.65
2023-03-22T04:31:46.299Z,6.60
2023-03-22T04:34:13.004Z,6.64
2023-03-22T04:36:39.749Z,6.73
2023-03-22T04:39:10.543Z,6.70
2023-03-22T04:41:37.798Z,6.72
2023-03-22T04:44:06.054Z,6.76
2023-03-22T04:46:35.513Z,6.82
2023-03-22T04:49:02.323Z,6.73
2023-03-22T04:51:30.475Z,6.72
2023-03-22T04:53:57.201Z,6.77
2023-03-22T04:56:25.399Z,6.71
2023-03-22T04:58:52.057Z,6.71
2023-03-22T05:01:19.248Z,6.77
2023-03-22T05:03:47.638Z,6.78
2023-03-22T05:06:15.592Z,6.75
2023-03-22T05:08:42.798Z,6.72
2023-03-22T05:11:13.751Z,6.74
2023-03-22T05:13:40.936Z,6.72
2023-03-22T05:16:08.215Z,6.74
2023-03-22T05:18:38.104Z,6.79
2023-03-22T05:21:06.813Z,6.83
2023-03-22T05:23:33.663Z,6.84
2023-03-22T05:26:02.067Z,6.86
2023-03-22T05:28:28.850Z,6.90
2023-03-22T05:30:57.225Z,6.95
2023-03-22T05:33:24.123Z,6.91
2023-03-22T05:35:51.358Z,6.85
2023-03-22T05:38:18.289Z,6.81
2023-03-22T05:40:46.484Z,6.79
2023-03-22T05:43:13.424Z,6.79
2023-03-22T05:45:40.287Z,6.83
2023-03-22T05:48:07.690Z,6.86
2023-03-22T05:50:35.397Z,6.89
2023-03-22T05:53:03.667Z,6.91
2023-03-22T05:55:32.327Z,6.98
2023-03-22T05:58:01.654Z,7.04
2023-03-22T06:00:32.015Z,7.05
2023-03-22T06:03:03.653Z,7.07
2023-03-22T06:05:32.182Z,7.08
2023-03-22T06:07:59.670Z,7.09
2023-03-22T06:10:27.038Z,7.10
2023-03-22T06:12:54.161Z,7.14
2023-03-22T06:15:21.553Z,7.20
2023-03-22T06:17:48.589Z,7.22
2023-03-22T06:20:15.660Z,7.24
2023-03-22T06:22:42.891Z,7.29
2023-03-22T06:25:10.759Z,7.31
2023-03-22T06:27:37.493Z,7.38
2023-03-22T06:30:04.609Z,7.42
2023-03-22T06:32:31.380Z,7.49
2023-03-22T06:34:58.197Z,7.61
2023-03-22T06:37:25.362Z,7.67
2023-03-22T06:39:52.380Z,7.72
2023-03-22T06:42:19.095Z,7.83
2023-03-22T06:44:45.902Z,7.91
2023-03-22T06:47:12.846Z,7.94
2023-03-22T06:49:39.779Z,8.04
2023-03-22T06:52:06.757Z,8.04
2023-03-22T06:54:33.701Z,8.09
2023-03-22T06:57:00.723Z,8.15
2023-03-22T06:59:27.872Z,8.24
2023-03-22T07:01:54.774Z,8.31
2023-03-22T07:04:21.523Z,8.37
2023-03-22T07:06:48.474Z,8.44
2023-03-22T07:09:15.576Z,8.55
2023-03-22T07:11:42.495Z,8.56
2023-03-22T07:14:09.363Z,8.59
2023-03-22T07:16:36.002Z,8.64
2023-03-22T07:19:03.635Z,8.72
2023-03-22T07:24:09.195Z,8.93
2023-03-22T07:26:38.579Z,9.05
2023-03-22T07:29:05.519Z,9.20
2023-03-22T07:31:36.391Z,9.28
2023-03-22T07:34:04.286Z,9.42
2023-03-22T07:36:31.167Z,9.55
2023-03-22T07:38:58.231Z,9.66
2023-03-22T07:41:27.052Z,9.63
2023-03-22T07:44:00.242Z,9.60
2023-03-22T07:46:34.587Z,9.66
2023-03-22T07:49:01.513Z,9.84
2023-03-22T07:51:28.224Z,9.93
2023-03-22T07:53:54.881Z,10.11
2023-03-22T07:56:21.603Z,10.13
2023-03-22T07:58:48.348Z,10.18
2023-03-22T08:01:15.088Z,10.31
2023-03-22T08:03:41.787Z,10.44
2023-03-22T08:06:09.090Z,10.36
2023-03-22T08:08:37.553Z,10.36
2023-03-22T08:11:05.627Z,10.57
2023-03-22T08:13:33.161Z,10.57
2023-03-22T08:16:00.014Z,10.51
2023-03-22T08:18:26.670Z,10.43
2023-03-22T08:20:58.121Z,10.55
2023-03-22T08:23:35.042Z,10.65
2023-03-22T08:26:07.606Z,10.76
2023-03-22T08:28:34.360Z,10.77
2023-03-22T08:31:01.042Z,10.76
2023-03-22T08:33:28.711Z,10.77
2023-03-22T08:36:06.636Z,10.82
2023-03-22T08:38:33.360Z,10.95
2023-03-22T08:41:00.021Z,10.98
2023-03-22T08:43:26.728Z,10.90
2023-03-22T08:45:53.674Z,11.06
2023-03-22T08:48:21.261Z,11.10
2023-03-22T08:50:48.091Z,11.23
2023-03-22T08:53:14.978Z,11.26
2023-03-22T08:55:44.924Z,11.29
2023-03-22T08:58:13.142Z,11.45
2023-03-22T09:00:48.719Z,11.57
2023-03-22T09:03:16.761Z,11.61
2023-03-22T09:05:43.974Z,11.75
2023-03-22T09:08:18.555Z,11.96
2023-03-22T09:10:51.326Z,12.16
2023-03-22T09:13:19.046Z,12.47
2023-03-22T09:15:46.134Z,12.51
2023-03-22T09:18:13.510Z,12.53
2023-03-22T09:20:40.623Z,12.63
2023-03-22T09:23:07.792Z,12.78
2023-03-22T09:25:34.607Z,12.67
2023-03-22T09:28:02.288Z,12.54
2023-03-22T09:30:29.122Z,12.64
2023-03-22T09:32:55.897Z,12.35
2023-03-22T09:35:23.021Z,12.32
2023-03-22T09:37:53.313Z,12.13
2023-03-22T09:40:21.515Z,12.20
2023-03-22T09:42:55.050Z,12.29
2023-03-22T09:45:38.140Z,12.22
2023-03-22T09:48:27.206Z,12.27
2023-03-22T09:50:55.305Z,12.27
2023-03-22T09:53:24.783Z,12.04
2023-03-22T09:55:51.328Z,12.13
2023-03-22T09:58:36.239Z,12.02
2023-03-22T10:01:29.267Z,11.99
2023-03-22T10:04:38.886Z,11.84
2023-03-22T10:07:39.078Z,12.00
2023-03-22T10:10:12.098Z,11.96
2023-03-22T10:13:20.003Z,12.14
2023-03-22T10:16:03.028Z,12.31
2023-03-22T10:18:39.057Z,12.50
2023-03-22T10:21:07.397Z,12.71
2023-03-22T10:23:51.072Z,12.74
2023-03-22T10:26:25.423Z,12.61
2023-03-22T10:29:04.010Z,12.81
2023-03-22T10:31:32.391Z,12.93
2023-03-22T10:34:05.504Z,12.98
2023-03-22T10:36:35.732Z,13.21
2023-03-22T10:39:09.120Z,13.13
2023-03-22T10:41:36.963Z,13.05
2023-03-22T10:44:06.538Z,13.03
2023-03-22T10:46:39.459Z,13.29
2023-03-22T10:49:08.369Z,13.33
2023-03-22T10:51:56.824Z,13.14
2023-03-22T10:54:26.268Z,12.91
2023-03-22T10:56:53.496Z,12.64
2023-03-22T10:59:44.084Z,12.83
2023-03-22T11:02:25.071Z,13.00
2023-03-22T11:04:54.328Z,12.89
2023-03-22T11:07:44.903Z,12.97
2023-03-22T11:10:14.528Z,12.96
2023-03-22T11:12:47.427Z,12.94
2023-03-22T11:15:28.074Z,13.26
2023-03-22T11:18:01.003Z,12.92
2023-03-22T11:20:29.972Z,12.81
2023-03-22T11:23:02.877Z,12.84
2023-03-22T11:25:32.735Z,12.85
2023-03-22T11:28:05.669Z,13.29
2023-03-22T11:30:36.112Z,13.54
2023-03-22T11:33:08.964Z,13.72
2023-03-22T11:35:37.675Z,14.06
2023-03-22T11:38:05.824Z,14.18
2023-03-22T11:40:36.256Z,14.43
2023-03-22T11:43:27.448Z,14.56
2023-03-22T11:45:57.961Z,14.58
2023-03-22T11:48:27.669Z,14.78
2023-03-22T11:50:59.620Z,14.33
2023-03-22T11:53:28.256Z,14.57
2023-03-22T11:55:57.747Z,14.17
2023-03-22T11:58:43.303Z,14.05
2023-03-22T12:01:36.791Z,13.92
2023-03-22T12:04:09.350Z,13.86
2023-03-22T12:06:40.579Z,14.16
2023-03-22T12:09:22.385Z,14.56
2023-03-22T12:11:53.216Z,15.05
2023-03-22T12:14:26.043Z,15.51
2023-03-22T12:17:03.013Z,15.20
2023-03-22T12:20:07.357Z,15.34
2023-03-22T12:22:43.214Z,15.00
2023-03-22T12:25:15.869Z,15.22
2023-03-22T12:27:56.768Z,15.13
2023-03-22T12:30:29.888Z,15.11
2023-03-22T12:33:25.539Z,15.14
2023-03-22T12:35:57.242Z,15.24
2023-03-22T12:38:28.831Z,15.20
2023-03-22T12:41:03.078Z,14.98
2023-03-22T12:43:53.322Z,15.12
2023-03-22T12:46:25.770Z,15.55
2023-03-22T12:49:01.161Z,15.59
2023-03-22T12:51:27.983Z,15.86
2023-03-22T12:54:00.046Z,15.75
2023-03-22T12:56:36.406Z,16.05
2023-03-22T12:59:06.575Z,16.02
2023-03-22T13:01:51.215Z,16.06
2023-03-22T13:04:27.558Z,15.64
2023-03-22T13:06:56.068Z,15.36
2023-03-22T13:09:28.779Z,15.89
2023-03-22T13:12:17.311Z,16.27
2023-03-22T13:14:50.452Z,16.16
2023-03-22T13:17:23.230Z,16.17
2023-03-22T13:19:53.821Z,15.89
2023-03-22T13:22:49.602Z,15.95
2023-03-22T13:25:23.781Z,15.59
2023-03-22T13:28:03.463Z,16.29
2023-03-22T13:30:52.543Z,16.22
2023-03-22T13:33:32.686Z,15.99
2023-03-22T13:36:07.138Z,15.75
2023-03-22T13:38:40.076Z,15.63
2023-03-22T13:41:29.478Z,15.93
2023-03-22T13:43:59.378Z,15.49
2023-03-22T13:46:26.056Z,15.22
2023-03-22T13:49:02.085Z,15.02
2023-03-22T13:51:32.293Z,14.90
2023-03-22T13:54:14.853Z,14.91
2023-03-22T13:56:53.268Z,15.05
2023-03-22T13:59:33.984Z,14.68
2023-03-22T14:02:11.007Z,14.73
2023-03-22T14:04:57.358Z,14.64
2023-03-22T14:07:29.298Z,14.54
2023-03-22T14:10:00.647Z,14.64
2023-03-22T14:12:54.271Z,14.80
2023-03-22T14:15:30.197Z,14.75
2023-03-22T14:18:00.762Z,14.68
2023-03-22T14:20:33.780Z,14.85
